CYOWRJAA

Guest
Details From CYOW - Ottawa Macdonald Cartier Intl
To RJAA - Narita Intl
Flight Number -
Tags Generated
Created
Modified
Stats Distance 5,561 nm / 10,298 km
Max Altitude 0 ft / 0 m
Waypoints 8
Social Downloads 5
Likes 0
Share VATSIM

Download

Looking for another format? Having issues loading an existing format? Contact us
Advertisement - Login to hide

Notes

Generated

Route

CYOW DEGMO FOLEL GRAAY GERBI AKESI LAKES RJAA

ID Type Via Altitude Latitude Longitude Leg Dist Tot Dist Heading (true) Name
O CYOW APT - 0 ft / 0 m 45.32611˚ -75.68903˚ - 0 nm - -
DEGMO FIX - 0 ft / 0 m 48.25125˚ -78.22839˚ 204 nm 204 nm 330° / 328° -
FOLEL FIX - 0 ft / 0 m 70.22578˚ -144.12728˚ 2248 nm 2452 nm 329° / 270° -
GRAAY FIX - 0 ft / 0 m 68.95630˚ -165.62774˚ 454 nm 2906 nm 271° / 250° -
GERBI FIX - 0 ft / 0 m 65.46667˚ 176.90000˚ 455 nm 3361 nm 251° / 235° -
AKESI FIX - 0 ft / 0 m 42.55456˚ 144.07321˚ 1758 nm 5120 nm 235° / 207° -
LAKES FIX - 0 ft / 0 m 35.96414˚ 140.50038˚ 429 nm 5549 nm 204° / 202° -
O RJAA APT - 0 ft / 0 m 35.80271˚ 140.37991˚ 11 nm 5560 nm 211° / 211° -

Altitude Profile

Advertisement - Login to hide

Weather


0- 5 10 15 20 25 30 35+ Temperature / ° C

Clouds and Precipitation
Forecast for 2017-12-12 12:00 UTC. Updated an hour ago

Ground ~20,000 ft ~40,000 ft Winds

CYOW

Details ICAO CYOW (YOW)
Name Ottawa Macdonald Cartier Intl
Region Canada
Timezone America/Toronto (UTC-5.0)
Stats Elevation 374 ft / 114 m (AMSL)
Location 45.322817° -75.671438°
Runways 3
Magnetic Variation 13.247° W

METAR

CYOW 121000Z 06014G20KT 2SM -SN OVC025 M11/M13 A2969 RMK SN3SC5 /S04/ SLP064

Decode

TAF

TAF TAF CYOW 120844Z 1209/1306 07015KT 11/2SM -SN VV012 PROB30 1209/1213 3/4SM -SN VV008 FM122000 01012KT 4SM -SN OVC015 TEMPO 1220/1306 2SM -SN BECMG 1222/1224 31015KT RMK NXT FCST BY 121200Z

Decode

Departure Runways

ID Width Length Bearing (true) Bearing (mag) Surface Threshold Offset Overrun Length
04 75 ft / 23 m 3,304 ft / 1,007 m 25.50° 38.75° Asphalt 0 ft / 0 m 0 ft / 0 m
07 200 ft / 61 m 8,011 ft / 2,442 m 57.16° 70.41° Asphalt 0 ft / 0 m 150 ft / 46 m
14 200 ft / 61 m 9,978 ft / 3,041 m 126.44° 139.69° Asphalt 0 ft / 0 m 150 ft / 46 m
22 75 ft / 23 m 3,304 ft / 1,007 m 205.50° 218.75° Asphalt 0 ft / 0 m 0 ft / 0 m
25 200 ft / 61 m 8,011 ft / 2,442 m 237.18° 250.43° Asphalt 0 ft / 0 m 155 ft / 47 m
32 200 ft / 61 m 9,978 ft / 3,041 m 306.46° 319.71° Asphalt 0 ft / 0 m 150 ft / 46 m

RJAA

Details ICAO RJAA (NRT)
Name NARITA INTL
Region Japan
Timezone Asia/Tokyo (UTC+9.0)
Stats Elevation 141 ft / 43 m (AMSL)
Location 35.776552° 140.382770°
Runways 2
Magnetic Variation 7.405° W

METAR

RJAA 121030Z 32005KT 9999 FEW030 BKN/// 05/M07 Q1012 NOSIG

Decode

TAF

TAF RJAA 120505Z 1206/1312 30006KT 9999 FEW030= TAF RJBB 120505Z 1206/1312 29020KT 9999 FEW020 SCT045

Decode

Destination Runways

ID Width Length Bearing (true) Bearing (mag) Surface Threshold Offset Overrun Length
16L 196 ft / 60 m 7,162 ft / 2,183 m 149.61° 157.01° Asphalt 190 ft / 58 m 0 ft / 0 m
16R 196 ft / 60 m 13,142 ft / 4,006 m 149.61° 157.01° Asphalt 0 ft / 0 m 410 ft / 125 m
34L 196 ft / 60 m 13,142 ft / 4,006 m 329.62° 337.02° Asphalt 0 ft / 0 m 415 ft / 126 m
34R 196 ft / 60 m 7,162 ft / 2,183 m 329.62° 337.02° Asphalt 190 ft / 58 m 0 ft / 0 m

Approach Navaids

Runway Type Ident Frequency Range Bearing (true) Bearing (mag) Slope Elevation
16L Localiser ITM 110.70 MHz 18 nm / 33 km 149.62° 157.02° - 141 ft / 43 m (AMSL)
16L Glidescope ITM 110.70 MHz 10 nm / 19 km 149.62° 157.02° 3.00° 141 ft / 43 m (AMSL)
16L DME ITM 110.70 MHz 18 nm / 33 km - - - 145 ft / 44 m (AMSL)
16R Localiser IKF 111.50 MHz 18 nm / 33 km 149.63° 157.03° - 141 ft / 43 m (AMSL)
16R Glidescope IKF 111.50 MHz 10 nm / 19 km 149.62° 157.02° 3.00° 141 ft / 43 m (AMSL)
16R DME IKF 111.50 MHz 18 nm / 33 km - - - 145 ft / 44 m (AMSL)
34L Localiser IYQ 111.90 MHz 18 nm / 33 km 329.61° 337.01° - 141 ft / 43 m (AMSL)
34L Glidescope IYQ 111.90 MHz 10 nm / 19 km 329.62° 337.02° 3.00° 141 ft / 43 m (AMSL)
34L DME IYQ 111.90 MHz 18 nm / 33 km - - - 153 ft / 47 m (AMSL)
34R Localiser ITJ 110.90 MHz 18 nm / 33 km 329.62° 337.02° - 141 ft / 43 m (AMSL)
34R Glidescope ITJ 110.90 MHz 10 nm / 19 km 329.62° 337.02° 3.00° 141 ft / 43 m (AMSL)
34R DME ITJ 110.90 MHz 18 nm / 33 km - - - 148 ft / 45 m (AMSL)